sensor_id;sensor_type;location;lat;lon;timestamp;temperature;humidity
14908;DHT22;7545;52.092;7.006;2023-02-19T00:01:15;10.40;99.90
14908;DHT22;7545;52.092;7.006;2023-02-19T00:03:42;10.40;99.90
14908;DHT22;7545;52.092;7.006;2023-02-19T00:06:11;10.30;99.90
14908;DHT22;7545;52.092;7.006;2023-02-19T00:08:38;10.30;99.90
14908;DHT22;7545;52.092;7.006;2023-02-19T00:11:10;10.30;99.90
14908;DHT22;7545;52.092;7.006;2023-02-19T00:13:40;10.40;99.90
14908;DHT22;7545;52.092;7.006;2023-02-19T00:16:12;10.40;99.90
14908;DHT22;7545;52.092;7.006;2023-02-19T00:18:38;10.40;99.90
14908;DHT22;7545;52.092;7.006;2023-02-19T00:21:04;10.40;99.90
14908;DHT22;7545;52.092;7.006;2023-02-19T00:23:30;10.40;99.90
14908;DHT22;7545;52.092;7.006;2023-02-19T00:26:00;10.40;99.90
14908;DHT22;7545;52.092;7.006;2023-02-19T00:28:26;10.40;99.90
14908;DHT22;7545;52.092;7.006;2023-02-19T00:30:51;10.40;99.90
14908;DHT22;7545;52.092;7.006;2023-02-19T00:33:17;10.30;99.90
14908;DHT22;7545;52.092;7.006;2023-02-19T00:35:42;10.30;99.90
14908;DHT22;7545;52.092;7.006;2023-02-19T00:38:08;10.30;99.90
14908;DHT22;7545;52.092;7.006;2023-02-19T00:40:34;10.30;99.90
14908;DHT22;7545;52.092;7.006;2023-02-19T00:42:59;10.40;99.90
14908;DHT22;7545;52.092;7.006;2023-02-19T00:45:25;10.30;99.90
14908;DHT22;7545;52.092;7.006;2023-02-19T00:47:51;10.40;99.90
14908;DHT22;7545;52.092;7.006;2023-02-19T00:50:17;10.30;99.90
14908;DHT22;7545;52.092;7.006;2023-02-19T00:52:42;10.30;99.90
14908;DHT22;7545;52.092;7.006;2023-02-19T00:55:08;10.30;99.90
14908;DHT22;7545;52.092;7.006;2023-02-19T00:57:33;10.30;99.90
14908;DHT22;7545;52.092;7.006;2023-02-19T00:59:59;10.30;99.90
14908;DHT22;7545;52.092;7.006;2023-02-19T01:02:25;10.30;99.90
14908;DHT22;7545;52.092;7.006;2023-02-19T01:04:51;10.30;99.90
14908;DHT22;7545;52.092;7.006;2023-02-19T01:07:17;10.30;99.90
14908;DHT22;7545;52.092;7.006;2023-02-19T01:09:43;10.30;99.90
14908;DHT22;7545;52.092;7.006;2023-02-19T01:12:09;10.30;99.90
14908;DHT22;7545;52.092;7.006;2023-02-19T01:14:34;10.30;99.90
14908;DHT22;7545;52.092;7.006;2023-02-19T01:17:00;10.40;99.90
14908;DHT22;7545;52.092;7.006;2023-02-19T01:19:25;10.40;99.90
14908;DHT22;7545;52.092;7.006;2023-02-19T01:21:51;10.40;99.90
14908;DHT22;7545;52.092;7.006;2023-02-19T01:24:16;10.30;99.90
14908;DHT22;7545;52.092;7.006;2023-02-19T01:26:42;10.30;99.90
14908;DHT22;7545;52.092;7.006;2023-02-19T01:29:08;10.30;99.90
14908;DHT22;7545;52.092;7.006;2023-02-19T01:31:34;10.30;99.90
14908;DHT22;7545;52.092;7.006;2023-02-19T01:34:01;10.30;99.90
14908;DHT22;7545;52.092;7.006;2023-02-19T01:36:30;10.30;99.90
14908;DHT22;7545;52.092;7.006;2023-02-19T01:38:59;10.30;99.90
14908;DHT22;7545;52.092;7.006;2023-02-19T01:41:25;10.30;99.90
14908;DHT22;7545;52.092;7.006;2023-02-19T01:44:02;10.30;99.90
14908;DHT22;7545;52.092;7.006;2023-02-19T01:46:30;10.30;99.90
14908;DHT22;7545;52.092;7.006;2023-02-19T01:48:59;10.30;99.90
14908;DHT22;7545;52.092;7.006;2023-02-19T01:51:26;10.30;99.90
14908;DHT22;7545;52.092;7.006;2023-02-19T01:53:56;10.30;99.90
14908;DHT22;7545;52.092;7.006;2023-02-19T01:56:25;10.30;99.90
14908;DHT22;7545;52.092;7.006;2023-02-19T01:58:51;10.30;99.90
14908;DHT22;7545;52.092;7.006;2023-02-19T02:01:17;10.30;99.90
14908;DHT22;7545;52.092;7.006;2023-02-19T02:03:46;10.30;99.90
14908;DHT22;7545;52.092;7.006;2023-02-19T02:06:20;10.30;99.90
14908;DHT22;7545;52.092;7.006;2023-02-19T02:08:50;10.30;99.90
14908;DHT22;7545;52.092;7.006;2023-02-19T02:11:37;10.30;99.90
14908;DHT22;7545;52.092;7.006;2023-02-19T02:14:05;10.30;99.90
14908;DHT22;7545;52.092;7.006;2023-02-19T02:16:52;10.30;99.90
14908;DHT22;7545;52.092;7.006;2023-02-19T02:22:40;10.30;99.90
14908;DHT22;7545;52.092;7.006;2023-02-19T02:32:59;10.20;99.90
14908;DHT22;7545;52.092;7.006;2023-02-19T02:35:30;10.20;99.90
14908;DHT22;7545;52.092;7.006;2023-02-19T02:38:01;10.20;99.90
14908;DHT22;7545;52.092;7.006;2023-02-19T02:40:28;10.20;99.90
14908;DHT22;7545;52.092;7.006;2023-02-19T02:42:57;10.20;99.90
14908;DHT22;7545;52.092;7.006;2023-02-19T02:45:31;10.20;99.90
14908;DHT22;7545;52.092;7.006;2023-02-19T02:50:43;10.10;99.90
14908;DHT22;7545;52.092;7.006;2023-02-19T02:53:15;10.10;99.90
14908;DHT22;7545;52.092;7.006;2023-02-19T02:56:02;10.10;99.90
14908;DHT22;7545;52.092;7.006;2023-02-19T02:58:28;10.10;99.90
14908;DHT22;7545;52.092;7.006;2023-02-19T03:01:00;10.10;99.90
14908;DHT22;7545;52.092;7.006;2023-02-19T03:03:46;10.10;99.90
14908;DHT22;7545;52.092;7.006;2023-02-19T03:06:16;10.10;99.90
14908;DHT22;7545;52.092;7.006;2023-02-19T03:08:51;10.10;99.90
14908;DHT22;7545;52.092;7.006;2023-02-19T03:11:18;10.10;99.90
14908;DHT22;7545;52.092;7.006;2023-02-19T03:14:14;10.00;99.90
14908;DHT22;7545;52.092;7.006;2023-02-19T03:17:26;10.00;99.90
14908;DHT22;7545;52.092;7.006;2023-02-19T03:20:12;10.10;99.90
14908;DHT22;7545;52.092;7.006;2023-02-19T03:22:41;10.10;99.90
14908;DHT22;7545;52.092;7.006;2023-02-19T03:25:20;10.10;99.90
14908;DHT22;7545;52.092;7.006;2023-02-19T03:28:08;10.00;99.90
14908;DHT22;7545;52.092;7.006;2023-02-19T03:30:40;10.00;99.90
14908;DHT22;7545;52.092;7.006;2023-02-19T03:33:18;10.10;99.90
14908;DHT22;7545;52.092;7.006;2023-02-19T03:35:51;10.00;99.90
14908;DHT22;7545;52.092;7.006;2023-02-19T03:38:25;10.10;99.90
14908;DHT22;7545;52.092;7.006;2023-02-19T03:43:37;10.10;99.90
14908;DHT22;7545;52.092;7.006;2023-02-19T03:46:12;10.10;99.90
14908;DHT22;7545;52.092;7.006;2023-02-19T03:51:48;10.00;99.90
14908;DHT22;7545;52.092;7.006;2023-02-19T03:57:18;10.00;99.90
14908;DHT22;7545;52.092;7.006;2023-02-19T04:00:08;10.10;99.90
14908;DHT22;7545;52.092;7.006;2023-02-19T04:05:29;10.00;99.90
14908;DHT22;7545;52.092;7.006;2023-02-19T04:08:03;10.00;99.90
14908;DHT22;7545;52.092;7.006;2023-02-19T04:10:30;10.00;99.90
14908;DHT22;7545;52.092;7.006;2023-02-19T04:13:04;10.00;99.90
14908;DHT22;7545;52.092;7.006;2023-02-19T04:15:33;10.00;99.90
14908;DHT22;7545;52.092;7.006;2023-02-19T04:18:12;10.00;99.90
14908;DHT22;7545;52.092;7.006;2023-02-19T04:20:42;9.90;99.90
14908;DHT22;7545;52.092;7.006;2023-02-19T04:23:09;10.00;99.90
14908;DHT22;7545;52.092;7.006;2023-02-19T04:25:37;9.90;99.90
14908;DHT22;7545;52.092;7.006;2023-02-19T04:28:04;10.00;99.90
14908;DHT22;7545;52.092;7.006;2023-02-19T04:30:31;10.00;99.90
14908;DHT22;7545;52.092;7.006;2023-02-19T04:32:57;10.00;99.90
14908;DHT22;7545;52.092;7.006;2023-02-19T04:35:22;9.90;99.90
14908;DHT22;7545;52.092;7.006;2023-02-19T04:37:48;9.90;99.90
14908;DHT22;7545;52.092;7.006;2023-02-19T04:40:13;9.90;99.90
14908;DHT22;7545;52.092;7.006;2023-02-19T04:42:39;9.90;99.90
14908;DHT22;7545;52.092;7.006;2023-02-19T04:45:05;9.90;99.90
14908;DHT22;7545;52.092;7.006;2023-02-19T04:47:31;9.90;99.90
14908;DHT22;7545;52.092;7.006;2023-02-19T04:49:56;9.90;99.90
14908;DHT22;7545;52.092;7.006;2023-02-19T04:52:22;9.90;99.90
14908;DHT22;7545;52.092;7.006;2023-02-19T04:54:48;9.90;99.90
14908;DHT22;7545;52.092;7.006;2023-02-19T04:57:13;9.90;99.90
14908;DHT22;7545;52.092;7.006;2023-02-19T04:59:39;9.90;99.90
14908;DHT22;7545;52.092;7.006;2023-02-19T05:02:04;9.80;99.90
14908;DHT22;7545;52.092;7.006;2023-02-19T05:04:30;9.90;99.90
14908;DHT22;7545;52.092;7.006;2023-02-19T05:06:56;9.80;99.90
14908;DHT22;7545;52.092;7.006;2023-02-19T05:09:21;9.80;99.90
14908;DHT22;7545;52.092;7.006;2023-02-19T05:11:47;9.80;99.90
14908;DHT22;7545;52.092;7.006;2023-02-19T05:14:12;9.80;99.90
14908;DHT22;7545;52.092;7.006;2023-02-19T05:16:38;9.90;99.90
14908;DHT22;7545;52.092;7.006;2023-02-19T05:19:03;9.90;99.90
14908;DHT22;7545;52.092;7.006;2023-02-19T05:21:29;9.80;99.90
14908;DHT22;7545;52.092;7.006;2023-02-19T05:23:55;9.80;99.90
14908;DHT22;7545;52.092;7.006;2023-02-19T05:26:22;9.80;99.90
14908;DHT22;7545;52.092;7.006;2023-02-19T05:28:53;9.80;99.90
14908;DHT22;7545;52.092;7.006;2023-02-19T05:31:19;9.80;99.90
14908;DHT22;7545;52.092;7.006;2023-02-19T05:33:44;9.80;99.90
14908;DHT22;7545;52.092;7.006;2023-02-19T05:36:14;9.80;99.90
14908;DHT22;7545;52.092;7.006;2023-02-19T05:38:40;9.80;99.90
14908;DHT22;7545;52.092;7.006;2023-02-19T05:43:32;9.80;99.90
14908;DHT22;7545;52.092;7.006;2023-02-19T05:45:58;9.80;99.90
14908;DHT22;7545;52.092;7.006;2023-02-19T05:48:23;9.80;99.90
14908;DHT22;7545;52.092;7.006;2023-02-19T05:50:49;9.80;99.90
14908;DHT22;7545;52.092;7.006;2023-02-19T05:53:15;9.80;99.90
14908;DHT22;7545;52.092;7.006;2023-02-19T05:55:41;9.80;99.90
14908;DHT22;7545;52.092;7.006;2023-02-19T05:58:06;9.90;99.90
14908;DHT22;7545;52.092;7.006;2023-02-19T06:00:32;9.90;99.90
14908;DHT22;7545;52.092;7.006;2023-02-19T06:02:58;9.80;99.90
14908;DHT22;7545;52.092;7.006;2023-02-19T06:05:24;9.80;99.90
14908;DHT22;7545;52.092;7.006;2023-02-19T06:07:49;9.80;99.90
14908;DHT22;7545;52.092;7.006;2023-02-19T06:10:16;9.80;99.90
14908;DHT22;7545;52.092;7.006;2023-02-19T06:12:41;9.80;99.90
14908;DHT22;7545;52.092;7.006;2023-02-19T06:15:07;9.80;99.90
14908;DHT22;7545;52.092;7.006;2023-02-19T06:17:33;9.80;99.90
14908;DHT22;7545;52.092;7.006;2023-02-19T06:19:59;9.80;99.90
14908;DHT22;7545;52.092;7.006;2023-02-19T06:22:25;9.80;99.90
14908;DHT22;7545;52.092;7.006;2023-02-19T06:24:51;9.80;99.90
14908;DHT22;7545;52.092;7.006;2023-02-19T06:27:16;9.70;99.90
14908;DHT22;7545;52.092;7.006;2023-02-19T06:29:42;9.70;99.90
14908;DHT22;7545;52.092;7.006;2023-02-19T06:32:08;9.70;99.90
14908;DHT22;7545;52.092;7.006;2023-02-19T06:34:34;9.70;99.90
14908;DHT22;7545;52.092;7.006;2023-02-19T06:37:00;9.70;99.90
14908;DHT22;7545;52.092;7.006;2023-02-19T06:39:26;9.70;99.90
14908;DHT22;7545;52.092;7.006;2023-02-19T06:41:55;9.70;99.90
14908;DHT22;7545;52.092;7.006;2023-02-19T06:44:21;9.70;99.90
14908;DHT22;7545;52.092;7.006;2023-02-19T06:46:46;9.70;99.90
14908;DHT22;7545;52.092;7.006;2023-02-19T06:49:12;9.70;99.90
14908;DHT22;7545;52.092;7.006;2023-02-19T06:51:39;9.70;99.90
14908;DHT22;7545;52.092;7.006;2023-02-19T06:54:05;9.70;99.90
14908;DHT22;7545;52.092;7.006;2023-02-19T06:56:36;9.70;99.90
14908;DHT22;7545;52.092;7.006;2023-02-19T06:59:09;9.70;99.90
14908;DHT22;7545;52.092;7.006;2023-02-19T07:01:35;9.60;99.90
14908;DHT22;7545;52.092;7.006;2023-02-19T07:04:02;9.70;99.90
14908;DHT22;7545;52.092;7.006;2023-02-19T07:06:28;9.70;99.90
14908;DHT22;7545;52.092;7.006;2023-02-19T07:08:55;9.70;99.90
14908;DHT22;7545;52.092;7.006;2023-02-19T07:11:21;9.70;99.90
14908;DHT22;7545;52.092;7.006;2023-02-19T07:13:52;9.70;99.90
14908;DHT22;7545;52.092;7.006;2023-02-19T07:16:18;9.70;99.90
14908;DHT22;7545;52.092;7.006;2023-02-19T07:18:44;9.60;99.90
14908;DHT22;7545;52.092;7.006;2023-02-19T07:21:12;9.60;99.90
14908;DHT22;7545;52.092;7.006;2023-02-19T07:23:38;9.60;99.90
14908;DHT22;7545;52.092;7.006;2023-02-19T07:26:08;9.60;99.90
14908;DHT22;7545;52.092;7.006;2023-02-19T07:28:33;9.60;99.90
14908;DHT22;7545;52.092;7.006;2023-02-19T07:31:00;9.60;99.90
14908;DHT22;7545;52.092;7.006;2023-02-19T07:33:26;9.60;99.90
14908;DHT22;7545;52.092;7.006;2023-02-19T07:35:52;9.60;99.90
14908;DHT22;7545;52.092;7.006;2023-02-19T07:38:22;9.60;99.90
14908;DHT22;7545;52.092;7.006;2023-02-19T07:41:01;9.60;99.90
14908;DHT22;7545;52.092;7.006;2023-02-19T07:43:30;9.60;99.90
14908;DHT22;7545;52.092;7.006;2023-02-19T07:45:56;9.60;99.90
14908;DHT22;7545;52.092;7.006;2023-02-19T07:48:22;9.50;99.90
14908;DHT22;7545;52.092;7.006;2023-02-19T07:50:56;9.60;99.90
14908;DHT22;7545;52.092;7.006;2023-02-19T07:53:22;9.60;99.90
14908;DHT22;7545;52.092;7.006;2023-02-19T07:55:48;9.60;99.90
14908;DHT22;7545;52.092;7.006;2023-02-19T07:58:15;9.60;99.90
14908;DHT22;7545;52.092;7.006;2023-02-19T08:00:40;9.60;99.90
14908;DHT22;7545;52.092;7.006;2023-02-19T08:03:06;9.50;99.90
14908;DHT22;7545;52.092;7.006;2023-02-19T08:05:39;9.50;99.90
14908;DHT22;7545;52.092;7.006;2023-02-19T08:08:11;9.50;99.90
14908;DHT22;7545;52.092;7.006;2023-02-19T08:10:37;9.40;99.90
14908;DHT22;7545;52.092;7.006;2023-02-19T08:13:23;9.40;99.90
14908;DHT22;7545;52.092;7.006;2023-02-19T08:16:07;9.40;99.90
14908;DHT22;7545;52.092;7.006;2023-02-19T08:18:33;9.40;99.90
14908;DHT22;7545;52.092;7.006;2023-02-19T08:20:59;9.40;99.90
14908;DHT22;7545;52.092;7.006;2023-02-19T08:23:26;9.40;99.90
14908;DHT22;7545;52.092;7.006;2023-02-19T08:25:54;9.40;99.90
14908;DHT22;7545;52.092;7.006;2023-02-19T08:28:21;9.50;99.90
14908;DHT22;7545;52.092;7.006;2023-02-19T08:30:47;9.40;99.90
14908;DHT22;7545;52.092;7.006;2023-02-19T08:33:15;9.50;99.90
14908;DHT22;7545;52.092;7.006;2023-02-19T08:35:41;9.40;99.90
14908;DHT22;7545;52.092;7.006;2023-02-19T08:38:08;9.40;99.90
14908;DHT22;7545;52.092;7.006;2023-02-19T08:40:34;9.40;99.90
14908;DHT22;7545;52.092;7.006;2023-02-19T08:43:06;9.30;99.90
14908;DHT22;7545;52.092;7.006;2023-02-19T08:45:32;9.30;99.90
14908;DHT22;7545;52.092;7.006;2023-02-19T08:47:59;9.20;99.90
14908;DHT22;7545;52.092;7.006;2023-02-19T08:50:25;9.10;99.90
14908;DHT22;7545;52.092;7.006;2023-02-19T08:52:51;9.10;99.90
14908;DHT22;7545;52.092;7.006;2023-02-19T08:55:17;9.00;99.90
14908;DHT22;7545;52.092;7.006;2023-02-19T08:57:43;9.00;99.90
14908;DHT22;7545;52.092;7.006;2023-02-19T09:00:10;9.00;99.90
14908;DHT22;7545;52.092;7.006;2023-02-19T09:02:36;9.00;99.90
14908;DHT22;7545;52.092;7.006;2023-02-19T09:05:02;9.10;99.90
14908;DHT22;7545;52.092;7.006;2023-02-19T09:07:27;9.00;99.90
14908;DHT22;7545;52.092;7.006;2023-02-19T09:09:53;9.00;99.90
14908;DHT22;7545;52.092;7.006;2023-02-19T09:12:19;9.00;99.90
14908;DHT22;7545;52.092;7.006;2023-02-19T09:14:44;9.00;99.90
14908;DHT22;7545;52.092;7.006;2023-02-19T09:17:11;9.00;99.90
14908;DHT22;7545;52.092;7.006;2023-02-19T09:19:37;9.00;99.90
14908;DHT22;7545;52.092;7.006;2023-02-19T09:22:04;9.00;99.90
14908;DHT22;7545;52.092;7.006;2023-02-19T09:24:31;9.00;99.90
14908;DHT22;7545;52.092;7.006;2023-02-19T09:26:57;9.10;99.90
14908;DHT22;7545;52.092;7.006;2023-02-19T09:29:24;9.10;99.90
14908;DHT22;7545;52.092;7.006;2023-02-19T09:31:54;9.10;99.90
14908;DHT22;7545;52.092;7.006;2023-02-19T09:34:19;9.10;99.90
14908;DHT22;7545;52.092;7.006;2023-02-19T09:36:48;9.20;99.90
14908;DHT22;7545;52.092;7.006;2023-02-19T09:39:13;9.20;99.90
14908;DHT22;7545;52.092;7.006;2023-02-19T09:44:33;9.20;99.90
14908;DHT22;7545;52.092;7.006;2023-02-19T09:47:00;9.20;99.90
14908;DHT22;7545;52.092;7.006;2023-02-19T09:49:39;9.20;99.90
14908;DHT22;7545;52.092;7.006;2023-02-19T09:52:50;9.20;99.90
14908;DHT22;7545;52.092;7.006;2023-02-19T09:55:31;9.20;99.90
14908;DHT22;7545;52.092;7.006;2023-02-19T09:57:59;9.20;99.90
14908;DHT22;7545;52.092;7.006;2023-02-19T10:00:32;9.10;99.90
14908;DHT22;7545;52.092;7.006;2023-02-19T10:03:10;9.00;99.90
14908;DHT22;7545;52.092;7.006;2023-02-19T10:05:38;9.10;99.90
14908;DHT22;7545;52.092;7.006;2023-02-19T10:08:08;9.10;99.90
14908;DHT22;7545;52.092;7.006;2023-02-19T10:10:37;9.10;99.90
14908;DHT22;7545;52.092;7.006;2023-02-19T10:13:28;9.10;99.90
14908;DHT22;7545;52.092;7.006;2023-02-19T10:16:00;9.10;99.90
14908;DHT22;7545;52.092;7.006;2023-02-19T10:18:31;9.10;99.90
14908;DHT22;7545;52.092;7.006;2023-02-19T10:21:00;9.20;99.90
14908;DHT22;7545;52.092;7.006;2023-02-19T10:23:26;9.20;99.90
14908;DHT22;7545;52.092;7.006;2023-02-19T10:25:54;9.20;99.90
14908;DHT22;7545;52.092;7.006;2023-02-19T10:28:28;9.20;99.90
14908;DHT22;7545;52.092;7.006;2023-02-19T10:30:57;9.20;99.90
14908;DHT22;7545;52.092;7.006;2023-02-19T10:33:23;9.10;99.90
14908;DHT22;7545;52.092;7.006;2023-02-19T10:35:52;9.10;99.90
14908;DHT22;7545;52.092;7.006;2023-02-19T10:38:28;9.00;99.90
14908;DHT22;7545;52.092;7.006;2023-02-19T10:41:15;9.00;99.90
14908;DHT22;7545;52.092;7.006;2023-02-19T10:44:04;9.00;99.90
14908;DHT22;7545;52.092;7.006;2023-02-19T10:46:40;9.00;99.90
14908;DHT22;7545;52.092;7.006;2023-02-19T10:49:31;9.00;99.90
14908;DHT22;7545;52.092;7.006;2023-02-19T10:54:43;9.00;99.90
14908;DHT22;7545;52.092;7.006;2023-02-19T11:00:00;9.00;99.90
14908;DHT22;7545;52.092;7.006;2023-02-19T11:02:27;9.10;99.90
14908;DHT22;7545;52.092;7.006;2023-02-19T11:07:35;9.10;99.90
14908;DHT22;7545;52.092;7.006;2023-02-19T11:10:02;9.10;99.90
14908;DHT22;7545;52.092;7.006;2023-02-19T11:12:32;9.10;99.90
14908;DHT22;7545;52.092;7.006;2023-02-19T11:15:28;9.10;99.90
14908;DHT22;7545;52.092;7.006;2023-02-19T11:20:48;9.20;99.90
14908;DHT22;7545;52.092;7.006;2023-02-19T11:23:16;9.20;99.90
14908;DHT22;7545;52.092;7.006;2023-02-19T11:25:47;9.30;99.90
14908;DHT22;7545;52.092;7.006;2023-02-19T11:28:23;9.30;99.90
14908;DHT22;7545;52.092;7.006;2023-02-19T11:30:51;9.40;99.90
14908;DHT22;7545;52.092;7.006;2023-02-19T11:35:47;9.50;99.90
14908;DHT22;7545;52.092;7.006;2023-02-19T11:38:15;9.50;99.90
14908;DHT22;7545;52.092;7.006;2023-02-19T11:49:52;9.60;99.90
14908;DHT22;7545;52.092;7.006;2023-02-19T11:53:00;9.60;99.90
14908;DHT22;7545;52.092;7.006;2023-02-19T11:55:42;9.60;99.90
14908;DHT22;7545;52.092;7.006;2023-02-19T11:58:25;9.60;99.90
14908;DHT22;7545;52.092;7.006;2023-02-19T12:06:25;9.60;99.90
14908;DHT22;7545;52.092;7.006;2023-02-19T12:14:03;9.60;99.90
14908;DHT22;7545;52.092;7.006;2023-02-19T12:22:14;9.70;99.90
14908;DHT22;7545;52.092;7.006;2023-02-19T12:25:16;9.70;99.90
14908;DHT22;7545;52.092;7.006;2023-02-19T12:30:41;9.70;99.90
14908;DHT22;7545;52.092;7.006;2023-02-19T12:41:37;9.60;99.90
14908;DHT22;7545;52.092;7.006;2023-02-19T12:44:17;9.60;99.90
14908;DHT22;7545;52.092;7.006;2023-02-19T12:46:56;9.60;99.90
14908;DHT22;7545;52.092;7.006;2023-02-19T12:52:16;9.60;99.90
14908;DHT22;7545;52.092;7.006;2023-02-19T12:54:48;9.70;99.90
14908;DHT22;7545;52.092;7.006;2023-02-19T12:59:48;9.70;99.90
14908;DHT22;7545;52.092;7.006;2023-02-19T13:02:36;9.70;99.90
14908;DHT22;7545;52.092;7.006;2023-02-19T13:07:52;9.70;99.90
14908;DHT22;7545;52.092;7.006;2023-02-19T13:10:43;9.70;99.90
14908;DHT22;7545;52.092;7.006;2023-02-19T13:14:02;9.60;99.90
14908;DHT22;7545;52.092;7.006;2023-02-19T13:16:13;9.60;99.90
14908;DHT22;7545;52.092;7.006;2023-02-19T13:21:08;9.60;99.90
14908;DHT22;7545;52.092;7.006;2023-02-19T13:23:40;9.60;99.90
14908;DHT22;7545;52.092;7.006;2023-02-19T13:26:54;9.70;99.90
14908;DHT22;7545;52.092;7.006;2023-02-19T13:35:18;9.70;99.90
14908;DHT22;7545;52.092;7.006;2023-02-19T13:37:46;9.70;99.90
14908;DHT22;7545;52.092;7.006;2023-02-19T13:43:00;9.60;99.90
14908;DHT22;7545;52.092;7.006;2023-02-19T13:45:39;9.60;99.90
14908;DHT22;7545;52.092;7.006;2023-02-19T13:50:47;9.50;99.90
14908;DHT22;7545;52.092;7.006;2023-02-19T13:59:20;9.60;99.90
14908;DHT22;7545;52.092;7.006;2023-02-19T14:17:38;9.60;99.90
14908;DHT22;7545;52.092;7.006;2023-02-19T14:27:53;9.50;99.90
14908;DHT22;7545;52.092;7.006;2023-02-19T14:30:20;9.60;99.90
14908;DHT22;7545;52.092;7.006;2023-02-19T14:32:47;9.50;99.90
14908;DHT22;7545;52.092;7.006;2023-02-19T14:35:19;9.50;99.90
14908;DHT22;7545;52.092;7.006;2023-02-19T14:37:45;9.50;99.90
14908;DHT22;7545;52.092;7.006;2023-02-19T14:40:29;9.50;99.90
14908;DHT22;7545;52.092;7.006;2023-02-19T14:42:57;9.60;99.90
14908;DHT22;7545;52.092;7.006;2023-02-19T14:45:25;9.60;99.90
14908;DHT22;7545;52.092;7.006;2023-02-19T14:47:54;9.70;99.90
14908;DHT22;7545;52.092;7.006;2023-02-19T14:50:30;9.70;99.90
14908;DHT22;7545;52.092;7.006;2023-02-19T14:53:00;9.70;99.90
14908;DHT22;7545;52.092;7.006;2023-02-19T14:55:33;9.70;99.90
14908;DHT22;7545;52.092;7.006;2023-02-19T14:58:03;9.70;99.90
14908;DHT22;7545;52.092;7.006;2023-02-19T15:00:38;9.80;99.90
14908;DHT22;7545;52.092;7.006;2023-02-19T15:03:04;9.70;99.90
14908;DHT22;7545;52.092;7.006;2023-02-19T15:05:33;9.70;99.90
14908;DHT22;7545;52.092;7.006;2023-02-19T15:08:08;9.80;99.90
14908;DHT22;7545;52.092;7.006;2023-02-19T15:10:37;9.80;99.90
14908;DHT22;7545;52.092;7.006;2023-02-19T15:13:08;9.70;99.90
14908;DHT22;7545;52.092;7.006;2023-02-19T15:15:38;9.80;99.90
14908;DHT22;7545;52.092;7.006;2023-02-19T15:18:13;9.80;99.90
14908;DHT22;7545;52.092;7.006;2023-02-19T15:20:41;9.80;99.90
14908;DHT22;7545;52.092;7.006;2023-02-19T15:23:07;9.80;99.90
14908;DHT22;7545;52.092;7.006;2023-02-19T15:25:35;9.80;99.90
14908;DHT22;7545;52.092;7.006;2023-02-19T15:30:50;9.70;99.90
14908;DHT22;7545;52.092;7.006;2023-02-19T15:33:18;9.60;99.90
14908;DHT22;7545;52.092;7.006;2023-02-19T15:35:56;9.60;99.90
14908;DHT22;7545;52.092;7.006;2023-02-19T15:38:22;9.60;99.90
14908;DHT22;7545;52.092;7.006;2023-02-19T15:40:48;9.70;99.90
14908;DHT22;7545;52.092;7.006;2023-02-19T15:43:36;9.80;99.90
14908;DHT22;7545;52.092;7.006;2023-02-19T15:46:18;9.80;99.90
14908;DHT22;7545;52.092;7.006;2023-02-19T15:48:55;9.80;99.90
14908;DHT22;7545;52.092;7.006;2023-02-19T15:51:29;9.80;99.90
14908;DHT22;7545;52.092;7.006;2023-02-19T15:54:00;9.70;99.90
14908;DHT22;7545;52.092;7.006;2023-02-19T15:56:31;9.70;99.90
14908;DHT22;7545;52.092;7.006;2023-02-19T15:59:06;9.70;99.90
14908;DHT22;7545;52.092;7.006;2023-02-19T16:01:36;9.60;99.90
14908;DHT22;7545;52.092;7.006;2023-02-19T16:04:07;9.60;99.90
14908;DHT22;7545;52.092;7.006;2023-02-19T16:06:53;9.60;99.90
14908;DHT22;7545;52.092;7.006;2023-02-19T16:09:28;9.50;99.90
14908;DHT22;7545;52.092;7.006;2023-02-19T16:11:57;9.50;99.90
14908;DHT22;7545;52.092;7.006;2023-02-19T16:14:31;9.40;99.90
14908;DHT22;7545;52.092;7.006;2023-02-19T16:19:29;9.40;99.90
14908;DHT22;7545;52.092;7.006;2023-02-19T16:21:57;9.30;99.90
14908;DHT22;7545;52.092;7.006;2023-02-19T16:24:36;9.30;99.90
14908;DHT22;7545;52.092;7.006;2023-02-19T16:27:03;9.30;99.90
14908;DHT22;7545;52.092;7.006;2023-02-19T16:29:31;9.30;99.90
14908;DHT22;7545;52.092;7.006;2023-02-19T16:31:59;9.20;99.90
14908;DHT22;7545;52.092;7.006;2023-02-19T16:34:38;9.20;99.90
14908;DHT22;7545;52.092;7.006;2023-02-19T16:42:34;9.00;99.90
14908;DHT22;7545;52.092;7.006;2023-02-19T16:45:00;9.00;99.90
14908;DHT22;7545;52.092;7.006;2023-02-19T16:47:30;9.00;99.90
14908;DHT22;7545;52.092;7.006;2023-02-19T16:49:59;9.00;99.90
14908;DHT22;7545;52.092;7.006;2023-02-19T16:52:26;9.00;99.90
14908;DHT22;7545;52.092;7.006;2023-02-19T16:54:52;9.00;99.90
14908;DHT22;7545;52.092;7.006;2023-02-19T16:57:17;8.90;99.90
14908;DHT22;7545;52.092;7.006;2023-02-19T16:59:45;8.80;99.90
14908;DHT22;7545;52.092;7.006;2023-02-19T17:02:16;8.90;99.90
14908;DHT22;7545;52.092;7.006;2023-02-19T17:04:42;8.80;99.90
14908;DHT22;7545;52.092;7.006;2023-02-19T17:07:12;8.80;99.90
14908;DHT22;7545;52.092;7.006;2023-02-19T17:09:38;8.80;99.90
14908;DHT22;7545;52.092;7.006;2023-02-19T17:12:08;8.80;99.90
14908;DHT22;7545;52.092;7.006;2023-02-19T17:14:34;8.70;99.90
14908;DHT22;7545;52.092;7.006;2023-02-19T17:17:00;8.70;99.90
14908;DHT22;7545;52.092;7.006;2023-02-19T17:19:25;8.70;99.90
14908;DHT22;7545;52.092;7.006;2023-02-19T17:21:51;8.70;99.90
14908;DHT22;7545;52.092;7.006;2023-02-19T17:24:16;8.70;99.90
14908;DHT22;7545;52.092;7.006;2023-02-19T17:26:42;8.70;99.90
14908;DHT22;7545;52.092;7.006;2023-02-19T17:29:13;8.70;99.90
14908;DHT22;7545;52.092;7.006;2023-02-19T17:31:38;8.70;99.90
14908;DHT22;7545;52.092;7.006;2023-02-19T17:34:04;8.70;99.90
14908;DHT22;7545;52.092;7.006;2023-02-19T17:36:31;8.70;99.90
14908;DHT22;7545;52.092;7.006;2023-02-19T17:38:58;8.50;99.90
14908;DHT22;7545;52.092;7.006;2023-02-19T17:41:24;8.60;99.90
14908;DHT22;7545;52.092;7.006;2023-02-19T17:43:49;8.60;99.90
14908;DHT22;7545;52.092;7.006;2023-02-19T17:46:17;8.60;99.90
14908;DHT22;7545;52.092;7.006;2023-02-19T17:48:43;8.60;99.90
14908;DHT22;7545;52.092;7.006;2023-02-19T17:51:08;8.60;99.90
14908;DHT22;7545;52.092;7.006;2023-02-19T17:53:34;8.60;99.90
14908;DHT22;7545;52.092;7.006;2023-02-19T17:56:00;8.60;99.90
14908;DHT22;7545;52.092;7.006;2023-02-19T17:58:26;8.60;99.90
14908;DHT22;7545;52.092;7.006;2023-02-19T18:00:51;8.60;99.90
14908;DHT22;7545;52.092;7.006;2023-02-19T18:03:17;8.50;99.90
14908;DHT22;7545;52.092;7.006;2023-02-19T18:05:42;8.50;99.90
14908;DHT22;7545;52.092;7.006;2023-02-19T18:08:08;8.50;99.90
14908;DHT22;7545;52.092;7.006;2023-02-19T18:10:34;8.50;99.90
14908;DHT22;7545;52.092;7.006;2023-02-19T18:13:00;8.50;99.90
14908;DHT22;7545;52.092;7.006;2023-02-19T18:15:26;8.50;99.90
14908;DHT22;7545;52.092;7.006;2023-02-19T18:17:53;8.50;99.90
14908;DHT22;7545;52.092;7.006;2023-02-19T18:20:27;8.50;99.90
14908;DHT22;7545;52.092;7.006;2023-02-19T18:22:54;8.50;99.90
14908;DHT22;7545;52.092;7.006;2023-02-19T18:25:20;8.50;99.90
14908;DHT22;7545;52.092;7.006;2023-02-19T18:27:47;8.50;99.90
14908;DHT22;7545;52.092;7.006;2023-02-19T18:30:14;8.50;99.90
14908;DHT22;7545;52.092;7.006;2023-02-19T18:32:42;8.50;99.90
14908;DHT22;7545;52.092;7.006;2023-02-19T18:35:08;8.60;99.90
14908;DHT22;7545;52.092;7.006;2023-02-19T18:37:34;8.50;99.90